Collins, New York
Current Conditions -  °F | °C
As of 9:53 PM on Wednesday 22 Oct 2014 (Local Time) from KDKK Reporting Station
Overcast Overcast  
Wind Chill: 47°   Ceiling: 3200
Heat Index: 47°   Visibility: 10mi
Dew Point: 42°   Wind: 0mph
Humidity: 83%   Direction: NA
Pressure: 30.21"   Gusts: NA
Location:  42.5°N, 78.92°W
Report Text: KDKK 230153Z AUTO 00000KT 10SM OVC032 08/06 A3021 RMK AO2 SLP235 T00830056
Loading
Personal Weather Stations






























Interactive Weather Map
Tropical Storm Tracking
New forecast layout! Learn more

10-Day Weather Forecast

Advertisements
Track Severe Weather on mobile